sensor_id;sensor_type;location;lat;lon;timestamp;P1;durP1;ratioP1;P2;durP2;ratioP2
75746;SDS011;70632;52.232;21.038;2023-11-21T00:01:57;28.17;;;13.00;;
75746;SDS011;70632;52.232;21.038;2023-11-21T00:04:26;30.63;;;13.07;;
75746;SDS011;70632;52.232;21.038;2023-11-21T00:06:54;28.75;;;13.43;;
75746;SDS011;70632;52.232;21.038;2023-11-21T00:09:20;27.65;;;12.73;;
75746;SDS011;70632;52.232;21.038;2023-11-21T00:11:45;30.85;;;14.20;;
75746;SDS011;70632;52.232;21.038;2023-11-21T00:14:11;31.73;;;13.18;;
75746;SDS011;70632;52.232;21.038;2023-11-21T00:16:37;32.00;;;13.25;;
75746;SDS011;70632;52.232;21.038;2023-11-21T00:19:03;31.40;;;13.30;;
75746;SDS011;70632;52.232;21.038;2023-11-21T00:21:30;27.52;;;13.48;;
75746;SDS011;70632;52.232;21.038;2023-11-21T00:23:56;28.55;;;11.30;;
75746;SDS011;70632;52.232;21.038;2023-11-21T00:26:24;29.83;;;13.73;;
75746;SDS011;70632;52.232;21.038;2023-11-21T00:28:50;26.67;;;13.57;;
75746;SDS011;70632;52.232;21.038;2023-11-21T00:31:16;34.45;;;13.45;;
75746;SDS011;70632;52.232;21.038;2023-11-21T00:33:42;28.70;;;12.75;;
75746;SDS011;70632;52.232;21.038;2023-11-21T00:36:08;29.30;;;13.52;;
75746;SDS011;70632;52.232;21.038;2023-11-21T00:38:35;27.00;;;13.63;;
75746;SDS011;70632;52.232;21.038;2023-11-21T00:41:01;31.02;;;14.32;;
75746;SDS011;70632;52.232;21.038;2023-11-21T00:43:28;30.10;;;13.57;;
75746;SDS011;70632;52.232;21.038;2023-11-21T00:45:53;28.42;;;12.20;;
75746;SDS011;70632;52.232;21.038;2023-11-21T00:48:19;30.05;;;12.63;;
75746;SDS011;70632;52.232;21.038;2023-11-21T00:50:45;29.75;;;13.00;;
75746;SDS011;70632;52.232;21.038;2023-11-21T00:53:11;31.92;;;13.95;;
75746;SDS011;70632;52.232;21.038;2023-11-21T00:55:37;28.63;;;13.02;;
75746;SDS011;70632;52.232;21.038;2023-11-21T00:58:05;26.95;;;12.82;;
75746;SDS011;70632;52.232;21.038;2023-11-21T01:00:32;32.13;;;14.35;;
75746;SDS011;70632;52.232;21.038;2023-11-21T01:02:59;33.40;;;15.00;;
75746;SDS011;70632;52.232;21.038;2023-11-21T01:05:25;32.75;;;14.90;;
75746;SDS011;70632;52.232;21.038;2023-11-21T01:07:52;28.98;;;12.98;;
75746;SDS011;70632;52.232;21.038;2023-11-21T01:10:18;32.05;;;15.20;;
75746;SDS011;70632;52.232;21.038;2023-11-21T01:12:44;30.83;;;14.35;;
75746;SDS011;70632;52.232;21.038;2023-11-21T01:15:09;31.45;;;13.05;;
75746;SDS011;70632;52.232;21.038;2023-11-21T01:17:37;29.40;;;13.57;;
75746;SDS011;70632;52.232;21.038;2023-11-21T01:20:03;30.35;;;14.45;;
75746;SDS011;70632;52.232;21.038;2023-11-21T01:22:38;50.35;;;24.42;;
75746;SDS011;70632;52.232;21.038;2023-11-21T01:25:04;40.10;;;17.20;;
75746;SDS011;70632;52.232;21.038;2023-11-21T01:27:36;36.25;;;14.57;;
75746;SDS011;70632;52.232;21.038;2023-11-21T01:30:05;27.75;;;14.55;;
75746;SDS011;70632;52.232;21.038;2023-11-21T01:32:33;29.13;;;13.45;;
75746;SDS011;70632;52.232;21.038;2023-11-21T01:34:59;30.63;;;14.80;;
75746;SDS011;70632;52.232;21.038;2023-11-21T01:37:25;31.35;;;13.82;;
75746;SDS011;70632;52.232;21.038;2023-11-21T01:39:53;35.30;;;13.85;;
75746;SDS011;70632;52.232;21.038;2023-11-21T01:42:20;28.80;;;13.82;;
75746;SDS011;70632;52.232;21.038;2023-11-21T01:44:46;28.98;;;13.45;;
75746;SDS011;70632;52.232;21.038;2023-11-21T01:47:12;28.83;;;13.70;;
75746;SDS011;70632;52.232;21.038;2023-11-21T01:49:38;29.70;;;14.38;;
75746;SDS011;70632;52.232;21.038;2023-11-21T01:52:05;35.30;;;14.10;;
75746;SDS011;70632;52.232;21.038;2023-11-21T01:54:31;30.20;;;15.02;;
75746;SDS011;70632;52.232;21.038;2023-11-21T01:57:01;27.40;;;13.50;;
75746;SDS011;70632;52.232;21.038;2023-11-21T01:59:29;29.13;;;13.73;;
75746;SDS011;70632;52.232;21.038;2023-11-21T02:02:04;26.77;;;13.20;;
75746;SDS011;70632;52.232;21.038;2023-11-21T02:04:31;26.92;;;13.50;;
75746;SDS011;70632;52.232;21.038;2023-11-21T02:07:00;34.92;;;14.10;;
75746;SDS011;70632;52.232;21.038;2023-11-21T02:09:29;28.70;;;14.13;;
75746;SDS011;70632;52.232;21.038;2023-11-21T02:11:56;28.77;;;13.77;;
75746;SDS011;70632;52.232;21.038;2023-11-21T02:14:24;28.35;;;13.70;;
75746;SDS011;70632;52.232;21.038;2023-11-21T02:16:57;30.85;;;13.25;;
75746;SDS011;70632;52.232;21.038;2023-11-21T02:19:22;30.33;;;13.38;;
75746;SDS011;70632;52.232;21.038;2023-11-21T02:21:51;29.52;;;14.00;;
75746;SDS011;70632;52.232;21.038;2023-11-21T02:24:21;31.05;;;14.43;;
75746;SDS011;70632;52.232;21.038;2023-11-21T02:26:48;26.73;;;13.85;;
75746;SDS011;70632;52.232;21.038;2023-11-21T02:29:19;28.45;;;13.45;;
75746;SDS011;70632;52.232;21.038;2023-11-21T02:31:53;29.00;;;13.80;;
75746;SDS011;70632;52.232;21.038;2023-11-21T02:34:20;26.42;;;13.30;;
75746;SDS011;70632;52.232;21.038;2023-11-21T02:36:47;28.48;;;12.95;;
75746;SDS011;70632;52.232;21.038;2023-11-21T02:39:16;29.35;;;13.60;;
75746;SDS011;70632;52.232;21.038;2023-11-21T02:41:43;29.38;;;13.60;;
75746;SDS011;70632;52.232;21.038;2023-11-21T02:44:09;28.65;;;13.48;;
75746;SDS011;70632;52.232;21.038;2023-11-21T02:46:35;31.35;;;13.23;;
75746;SDS011;70632;52.232;21.038;2023-11-21T02:49:02;30.15;;;13.38;;
75746;SDS011;70632;52.232;21.038;2023-11-21T02:51:29;32.80;;;14.88;;
75746;SDS011;70632;52.232;21.038;2023-11-21T02:53:55;27.02;;;12.88;;
75746;SDS011;70632;52.232;21.038;2023-11-21T02:56:26;31.75;;;13.43;;
75746;SDS011;70632;52.232;21.038;2023-11-21T02:58:52;30.65;;;14.48;;
75746;SDS011;70632;52.232;21.038;2023-11-21T03:01:20;27.50;;;12.90;;
75746;SDS011;70632;52.232;21.038;2023-11-21T03:03:46;28.67;;;14.85;;
75746;SDS011;70632;52.232;21.038;2023-11-21T03:08:41;29.83;;;14.55;;
75746;SDS011;70632;52.232;21.038;2023-11-21T03:11:07;37.72;;;17.45;;
75746;SDS011;70632;52.232;21.038;2023-11-21T03:13:33;36.08;;;17.58;;
75746;SDS011;70632;52.232;21.038;2023-11-21T03:15:59;40.42;;;17.90;;
75746;SDS011;70632;52.232;21.038;2023-11-21T03:18:25;35.28;;;17.55;;
75746;SDS011;70632;52.232;21.038;2023-11-21T03:20:54;33.05;;;14.20;;
75746;SDS011;70632;52.232;21.038;2023-11-21T03:23:20;36.15;;;15.23;;
75746;SDS011;70632;52.232;21.038;2023-11-21T03:25:46;29.08;;;14.25;;
75746;SDS011;70632;52.232;21.038;2023-11-21T03:28:11;34.55;;;13.45;;
75746;SDS011;70632;52.232;21.038;2023-11-21T03:30:37;35.47;;;14.77;;
75746;SDS011;70632;52.232;21.038;2023-11-21T03:33:03;31.13;;;14.82;;
75746;SDS011;70632;52.232;21.038;2023-11-21T03:35:29;31.70;;;15.82;;
75746;SDS011;70632;52.232;21.038;2023-11-21T03:37:54;34.65;;;14.77;;
75746;SDS011;70632;52.232;21.038;2023-11-21T03:40:22;27.13;;;12.73;;
75746;SDS011;70632;52.232;21.038;2023-11-21T03:42:47;27.70;;;12.93;;
75746;SDS011;70632;52.232;21.038;2023-11-21T03:45:13;33.83;;;14.52;;
75746;SDS011;70632;52.232;21.038;2023-11-21T03:47:41;33.83;;;14.45;;
75746;SDS011;70632;52.232;21.038;2023-11-21T03:50:07;25.85;;;12.65;;
75746;SDS011;70632;52.232;21.038;2023-11-21T03:52:34;33.15;;;13.32;;
75746;SDS011;70632;52.232;21.038;2023-11-21T03:55:01;34.40;;;14.95;;
75746;SDS011;70632;52.232;21.038;2023-11-21T03:57:27;37.45;;;15.57;;
75746;SDS011;70632;52.232;21.038;2023-11-21T03:59:53;28.73;;;13.15;;
75746;SDS011;70632;52.232;21.038;2023-11-21T04:02:19;35.15;;;14.20;;
75746;SDS011;70632;52.232;21.038;2023-11-21T04:04:45;29.33;;;14.32;;
75746;SDS011;70632;52.232;21.038;2023-11-21T04:07:11;30.65;;;13.65;;
75746;SDS011;70632;52.232;21.038;2023-11-21T04:09:39;29.90;;;13.60;;
75746;SDS011;70632;52.232;21.038;2023-11-21T04:12:06;29.15;;;13.05;;
75746;SDS011;70632;52.232;21.038;2023-11-21T04:14:34;30.70;;;14.30;;
75746;SDS011;70632;52.232;21.038;2023-11-21T04:17:00;30.60;;;14.32;;
75746;SDS011;70632;52.232;21.038;2023-11-21T04:19:26;28.08;;;12.65;;
75746;SDS011;70632;52.232;21.038;2023-11-21T04:21:51;27.95;;;12.23;;
75746;SDS011;70632;52.232;21.038;2023-11-21T04:24:17;28.92;;;12.68;;
75746;SDS011;70632;52.232;21.038;2023-11-21T04:26:43;30.70;;;11.70;;
75746;SDS011;70632;52.232;21.038;2023-11-21T04:29:09;27.70;;;12.15;;
75746;SDS011;70632;52.232;21.038;2023-11-21T04:31:35;24.45;;;11.52;;
75746;SDS011;70632;52.232;21.038;2023-11-21T04:34:01;27.23;;;11.38;;
75746;SDS011;70632;52.232;21.038;2023-11-21T04:36:29;25.95;;;11.50;;
75746;SDS011;70632;52.232;21.038;2023-11-21T04:38:56;26.80;;;11.95;;
75746;SDS011;70632;52.232;21.038;2023-11-21T04:41:22;26.23;;;12.13;;
75746;SDS011;70632;52.232;21.038;2023-11-21T04:43:48;26.88;;;12.23;;
75746;SDS011;70632;52.232;21.038;2023-11-21T04:46:14;24.92;;;11.40;;
75746;SDS011;70632;52.232;21.038;2023-11-21T04:48:40;26.92;;;10.70;;
75746;SDS011;70632;52.232;21.038;2023-11-21T04:51:06;21.83;;;10.82;;
75746;SDS011;70632;52.232;21.038;2023-11-21T04:53:34;22.27;;;11.10;;
75746;SDS011;70632;52.232;21.038;2023-11-21T04:56:00;23.90;;;11.27;;
75746;SDS011;70632;52.232;21.038;2023-11-21T04:58:26;22.48;;;10.35;;
75746;SDS011;70632;52.232;21.038;2023-11-21T05:00:52;21.95;;;11.02;;
75746;SDS011;70632;52.232;21.038;2023-11-21T05:03:18;23.33;;;10.18;;
75746;SDS011;70632;52.232;21.038;2023-11-21T05:05:43;19.83;;;10.23;;
75746;SDS011;70632;52.232;21.038;2023-11-21T05:08:09;24.10;;;11.90;;
75746;SDS011;70632;52.232;21.038;2023-11-21T05:10:35;23.05;;;11.10;;
75746;SDS011;70632;52.232;21.038;2023-11-21T06:51:11;21.38;;;8.93;;
75746;SDS011;70632;52.232;21.038;2023-11-21T06:53:46;23.80;;;10.10;;
75746;SDS011;70632;52.232;21.038;2023-11-21T06:56:21;19.92;;;9.77;;
75746;SDS011;70632;52.232;21.038;2023-11-21T07:02:27;26.00;;;10.43;;
75746;SDS011;70632;52.232;21.038;2023-11-21T07:04:54;25.00;;;10.88;;
75746;SDS011;70632;52.232;21.038;2023-11-21T07:07:20;23.80;;;9.82;;
75746;SDS011;70632;52.232;21.038;2023-11-21T07:09:46;22.13;;;9.90;;
75746;SDS011;70632;52.232;21.038;2023-11-21T07:12:13;24.33;;;10.70;;
75746;SDS011;70632;52.232;21.038;2023-11-21T07:14:39;30.58;;;11.73;;
75746;SDS011;70632;52.232;21.038;2023-11-21T07:17:08;23.50;;;11.48;;
75746;SDS011;70632;52.232;21.038;2023-11-21T07:19:34;21.92;;;11.05;;
75746;SDS011;70632;52.232;21.038;2023-11-21T07:22:01;23.27;;;10.60;;
75746;SDS011;70632;52.232;21.038;2023-11-21T07:24:27;20.30;;;9.68;;
75746;SDS011;70632;52.232;21.038;2023-11-21T07:26:52;23.90;;;11.10;;
75746;SDS011;70632;52.232;21.038;2023-11-21T07:29:23;21.25;;;10.27;;
75746;SDS011;70632;52.232;21.038;2023-11-21T07:31:51;30.00;;;12.02;;
75746;SDS011;70632;52.232;21.038;2023-11-21T07:34:17;23.17;;;11.00;;
75746;SDS011;70632;52.232;21.038;2023-11-21T07:36:43;22.88;;;10.65;;
75746;SDS011;70632;52.232;21.038;2023-11-21T07:39:09;22.40;;;10.60;;
75746;SDS011;70632;52.232;21.038;2023-11-21T07:41:36;26.30;;;11.02;;
75746;SDS011;70632;52.232;21.038;2023-11-21T07:44:03;21.00;;;9.75;;
75746;SDS011;70632;52.232;21.038;2023-11-21T07:46:30;23.63;;;10.63;;
75746;SDS011;70632;52.232;21.038;2023-11-21T07:48:55;23.92;;;10.90;;
75746;SDS011;70632;52.232;21.038;2023-11-21T07:51:21;24.05;;;10.75;;
75746;SDS011;70632;52.232;21.038;2023-11-21T07:53:47;21.73;;;10.07;;
75746;SDS011;70632;52.232;21.038;2023-11-21T07:56:13;20.27;;;10.55;;
75746;SDS011;70632;52.232;21.038;2023-11-21T07:58:39;26.20;;;10.75;;
75746;SDS011;70632;52.232;21.038;2023-11-21T08:01:04;20.98;;;10.80;;
75746;SDS011;70632;52.232;21.038;2023-11-21T08:03:30;25.60;;;10.55;;
75746;SDS011;70632;52.232;21.038;2023-11-21T08:05:57;24.45;;;11.13;;
75746;SDS011;70632;52.232;21.038;2023-11-21T08:08:23;23.60;;;10.10;;
75746;SDS011;70632;52.232;21.038;2023-11-21T08:10:50;18.52;;;9.57;;
75746;SDS011;70632;52.232;21.038;2023-11-21T08:13:30;20.75;;;10.07;;
75746;SDS011;70632;52.232;21.038;2023-11-21T08:15:56;28.05;;;11.30;;
75746;SDS011;70632;52.232;21.038;2023-11-21T08:18:27;21.45;;;10.13;;
75746;SDS011;70632;52.232;21.038;2023-11-21T08:20:54;24.95;;;10.98;;
75746;SDS011;70632;52.232;21.038;2023-11-21T08:23:20;21.55;;;10.52;;
75746;SDS011;70632;52.232;21.038;2023-11-21T08:25:50;23.50;;;10.23;;
75746;SDS011;70632;52.232;21.038;2023-11-21T08:28:17;20.55;;;10.48;;
75746;SDS011;70632;52.232;21.038;2023-11-21T08:30:42;23.45;;;9.82;;
75746;SDS011;70632;52.232;21.038;2023-11-21T08:33:09;22.63;;;10.52;;
75746;SDS011;70632;52.232;21.038;2023-11-21T08:35:37;22.48;;;10.50;;
75746;SDS011;70632;52.232;21.038;2023-11-21T08:38:03;22.17;;;11.88;;
75746;SDS011;70632;52.232;21.038;2023-11-21T08:40:29;20.73;;;10.63;;
75746;SDS011;70632;52.232;21.038;2023-11-21T08:42:55;18.40;;;9.40;;
75746;SDS011;70632;52.232;21.038;2023-11-21T08:45:24;20.40;;;9.73;;
75746;SDS011;70632;52.232;21.038;2023-11-21T08:47:51;19.92;;;10.35;;
75746;SDS011;70632;52.232;21.038;2023-11-21T08:50:17;26.98;;;10.38;;
75746;SDS011;70632;52.232;21.038;2023-11-21T08:52:43;22.77;;;10.63;;
75746;SDS011;70632;52.232;21.038;2023-11-21T08:55:11;25.95;;;11.13;;
75746;SDS011;70632;52.232;21.038;2023-11-21T08:57:38;22.08;;;9.75;;
75746;SDS011;70632;52.232;21.038;2023-11-21T09:00:08;23.48;;;10.77;;
75746;SDS011;70632;52.232;21.038;2023-11-21T09:02:41;29.30;;;11.50;;
75746;SDS011;70632;52.232;21.038;2023-11-21T09:05:10;23.88;;;10.95;;
75746;SDS011;70632;52.232;21.038;2023-11-21T09:07:38;24.60;;;11.20;;
75746;SDS011;70632;52.232;21.038;2023-11-21T09:10:06;23.10;;;10.95;;
75746;SDS011;70632;52.232;21.038;2023-11-21T09:12:36;26.45;;;10.80;;
75746;SDS011;70632;52.232;21.038;2023-11-21T09:15:05;21.77;;;10.98;;
75746;SDS011;70632;52.232;21.038;2023-11-21T09:17:33;25.45;;;12.05;;
75746;SDS011;70632;52.232;21.038;2023-11-21T09:20:02;26.55;;;10.73;;
75746;SDS011;70632;52.232;21.038;2023-11-21T09:22:31;23.67;;;11.27;;
75746;SDS011;70632;52.232;21.038;2023-11-21T09:24:57;27.52;;;11.43;;
75746;SDS011;70632;52.232;21.038;2023-11-21T09:27:23;24.50;;;11.55;;
75746;SDS011;70632;52.232;21.038;2023-11-21T09:29:53;28.83;;;11.88;;
75746;SDS011;70632;52.232;21.038;2023-11-21T09:32:20;25.27;;;11.43;;
75746;SDS011;70632;52.232;21.038;2023-11-21T09:34:49;27.80;;;12.27;;
75746;SDS011;70632;52.232;21.038;2023-11-21T09:37:16;26.55;;;12.95;;
75746;SDS011;70632;52.232;21.038;2023-11-21T09:39:41;26.50;;;12.60;;
75746;SDS011;70632;52.232;21.038;2023-11-21T09:42:10;25.42;;;12.52;;
75746;SDS011;70632;52.232;21.038;2023-11-21T09:47:18;20.90;;;11.88;;
75746;SDS011;70632;52.232;21.038;2023-11-21T09:49:48;20.73;;;10.30;;
75746;SDS011;70632;52.232;21.038;2023-11-21T09:52:39;25.02;;;11.98;;
75746;SDS011;70632;52.232;21.038;2023-11-21T09:55:26;23.42;;;13.13;;
75746;SDS011;70632;52.232;21.038;2023-11-21T09:57:57;28.52;;;13.45;;
75746;SDS011;70632;52.232;21.038;2023-11-21T10:00:23;25.42;;;13.15;;
75746;SDS011;70632;52.232;21.038;2023-11-21T10:02:49;31.42;;;12.10;;
75746;SDS011;70632;52.232;21.038;2023-11-21T10:05:18;24.45;;;11.90;;
75746;SDS011;70632;52.232;21.038;2023-11-21T10:07:48;25.55;;;11.77;;
75746;SDS011;70632;52.232;21.038;2023-11-21T10:10:16;25.40;;;11.38;;
75746;SDS011;70632;52.232;21.038;2023-11-21T10:12:47;21.85;;;11.27;;
75746;SDS011;70632;52.232;21.038;2023-11-21T10:15:14;22.88;;;10.63;;
75746;SDS011;70632;52.232;21.038;2023-11-21T10:17:42;24.85;;;9.75;;
75746;SDS011;70632;52.232;21.038;2023-11-21T10:20:11;25.38;;;10.77;;
75746;SDS011;70632;52.232;21.038;2023-11-21T10:22:42;21.77;;;11.13;;
75746;SDS011;70632;52.232;21.038;2023-11-21T10:25:08;25.52;;;12.10;;
75746;SDS011;70632;52.232;21.038;2023-11-21T10:27:35;22.52;;;11.55;;
75746;SDS011;70632;52.232;21.038;2023-11-21T10:30:04;20.40;;;10.98;;
75746;SDS011;70632;52.232;21.038;2023-11-21T10:32:30;27.20;;;11.48;;
75746;SDS011;70632;52.232;21.038;2023-11-21T10:35:01;24.02;;;11.68;;
75746;SDS011;70632;52.232;21.038;2023-11-21T10:37:38;27.65;;;12.48;;
75746;SDS011;70632;52.232;21.038;2023-11-21T10:40:06;23.85;;;11.77;;
75746;SDS011;70632;52.232;21.038;2023-11-21T10:42:33;25.98;;;12.35;;
75746;SDS011;70632;52.232;21.038;2023-11-21T10:44:59;25.58;;;12.38;;
75746;SDS011;70632;52.232;21.038;2023-11-21T10:47:26;24.98;;;12.73;;
75746;SDS011;70632;52.232;21.038;2023-11-21T10:49:52;25.48;;;12.00;;
75746;SDS011;70632;52.232;21.038;2023-11-21T10:52:20;24.50;;;11.68;;
75746;SDS011;70632;52.232;21.038;2023-11-21T10:54:46;26.10;;;12.13;;
75746;SDS011;70632;52.232;21.038;2023-11-21T10:57:14;24.58;;;11.13;;
75746;SDS011;70632;52.232;21.038;2023-11-21T10:59:43;26.70;;;11.43;;
75746;SDS011;70632;52.232;21.038;2023-11-21T11:02:22;24.23;;;11.00;;
75746;SDS011;70632;52.232;21.038;2023-11-21T11:04:59;26.73;;;12.30;;
75746;SDS011;70632;52.232;21.038;2023-11-21T11:07:27;25.80;;;12.38;;
75746;SDS011;70632;52.232;21.038;2023-11-21T11:09:53;22.65;;;10.45;;
75746;SDS011;70632;52.232;21.038;2023-11-21T11:12:20;25.73;;;12.40;;
75746;SDS011;70632;52.232;21.038;2023-11-21T11:14:47;24.20;;;12.02;;
75746;SDS011;70632;52.232;21.038;2023-11-21T11:17:14;22.65;;;11.35;;
75746;SDS011;70632;52.232;21.038;2023-11-21T11:19:40;25.15;;;11.85;;
75746;SDS011;70632;52.232;21.038;2023-11-21T11:22:16;31.13;;;12.38;;
75746;SDS011;70632;52.232;21.038;2023-11-21T11:28:04;26.23;;;11.88;;
75746;SDS011;70632;52.232;21.038;2023-11-21T11:38:17;25.50;;;12.13;;
75746;SDS011;70632;52.232;21.038;2023-11-21T11:40:46;26.50;;;13.00;;
75746;SDS011;70632;52.232;21.038;2023-11-21T11:43:12;27.17;;;13.65;;
75746;SDS011;70632;52.232;21.038;2023-11-21T11:45:38;29.20;;;14.73;;
75746;SDS011;70632;52.232;21.038;2023-11-21T11:48:08;25.83;;;12.90;;
75746;SDS011;70632;52.232;21.038;2023-11-21T11:50:41;28.00;;;13.50;;
75746;SDS011;70632;52.232;21.038;2023-11-21T11:53:32;38.08;;;16.40;;
75746;SDS011;70632;52.232;21.038;2023-11-21T11:56:44;30.63;;;14.50;;
75746;SDS011;70632;52.232;21.038;2023-11-21T11:58:56;30.40;;;13.40;;
75746;SDS011;70632;52.232;21.038;2023-11-21T12:01:24;28.58;;;13.70;;
75746;SDS011;70632;52.232;21.038;2023-11-21T12:06:36;28.70;;;13.25;;
75746;SDS011;70632;52.232;21.038;2023-11-21T12:09:02;27.55;;;12.70;;
75746;SDS011;70632;52.232;21.038;2023-11-21T12:11:31;28.73;;;13.35;;
75746;SDS011;70632;52.232;21.038;2023-11-21T12:13:58;31.83;;;13.95;;
75746;SDS011;70632;52.232;21.038;2023-11-21T12:16:25;35.65;;;14.13;;
75746;SDS011;70632;52.232;21.038;2023-11-21T12:21:20;27.65;;;13.38;;
75746;SDS011;70632;52.232;21.038;2023-11-21T12:23:47;31.73;;;13.45;;
75746;SDS011;70632;52.232;21.038;2023-11-21T12:26:13;28.38;;;12.63;;
75746;SDS011;70632;52.232;21.038;2023-11-21T12:28:39;29.25;;;14.30;;
75746;SDS011;70632;52.232;21.038;2023-11-21T12:31:05;29.50;;;13.38;;
75746;SDS011;70632;52.232;21.038;2023-11-21T12:33:33;25.45;;;12.65;;
75746;SDS011;70632;52.232;21.038;2023-11-21T12:35:58;26.95;;;13.23;;
75746;SDS011;70632;52.232;21.038;2023-11-21T12:38:24;24.80;;;13.75;;
75746;SDS011;70632;52.232;21.038;2023-11-21T12:40:50;27.77;;;14.85;;
75746;SDS011;70632;52.232;21.038;2023-11-21T12:43:16;27.75;;;14.52;;
75746;SDS011;70632;52.232;21.038;2023-11-21T12:45:43;29.52;;;14.07;;
75746;SDS011;70632;52.232;21.038;2023-11-21T12:48:09;28.83;;;12.73;;
75746;SDS011;70632;52.232;21.038;2023-11-21T12:50:36;24.10;;;12.52;;
75746;SDS011;70632;52.232;21.038;2023-11-21T12:55:31;27.80;;;13.65;;
75746;SDS011;70632;52.232;21.038;2023-11-21T12:58:01;31.55;;;16.35;;
75746;SDS011;70632;52.232;21.038;2023-11-21T13:00:35;33.25;;;17.08;;
75746;SDS011;70632;52.232;21.038;2023-11-21T13:03:05;29.60;;;14.38;;
75746;SDS011;70632;52.232;21.038;2023-11-21T13:05:38;30.10;;;13.40;;
75746;SDS011;70632;52.232;21.038;2023-11-21T13:08:08;30.02;;;12.35;;
75746;SDS011;70632;52.232;21.038;2023-11-21T13:13:05;31.50;;;14.15;;
75746;SDS011;70632;52.232;21.038;2023-11-21T13:15:34;32.13;;;14.30;;
75746;SDS011;70632;52.232;21.038;2023-11-21T13:18:04;26.88;;;13.50;;
75746;SDS011;70632;52.232;21.038;2023-11-21T13:20:29;30.27;;;13.13;;
75746;SDS011;70632;52.232;21.038;2023-11-21T13:22:56;25.75;;;13.02;;
75746;SDS011;70632;52.232;21.038;2023-11-21T13:25:27;24.15;;;13.73;;
75746;SDS011;70632;52.232;21.038;2023-11-21T13:27:54;30.10;;;14.32;;
75746;SDS011;70632;52.232;21.038;2023-11-21T13:30:23;27.98;;;14.10;;
75746;SDS011;70632;52.232;21.038;2023-11-21T13:32:53;28.75;;;13.32;;
75746;SDS011;70632;52.232;21.038;2023-11-21T13:35:23;28.00;;;13.43;;
75746;SDS011;70632;52.232;21.038;2023-11-21T13:38:05;32.58;;;15.38;;
75746;SDS011;70632;52.232;21.038;2023-11-21T13:40:39;31.38;;;15.32;;
75746;SDS011;70632;52.232;21.038;2023-11-21T13:43:15;32.17;;;15.45;;
75746;SDS011;70632;52.232;21.038;2023-11-21T13:45:44;29.88;;;15.00;;
75746;SDS011;70632;52.232;21.038;2023-11-21T13:48:11;32.03;;;15.75;;
75746;SDS011;70632;52.232;21.038;2023-11-21T13:50:44;29.05;;;13.77;;
75746;SDS011;70632;52.232;21.038;2023-11-21T13:53:23;31.17;;;14.35;;
75746;SDS011;70632;52.232;21.038;2023-11-21T13:55:50;29.33;;;14.07;;
75746;SDS011;70632;52.232;21.038;2023-11-21T13:58:17;29.90;;;13.52;;
75746;SDS011;70632;52.232;21.038;2023-11-21T14:00:49;40.03;;;16.80;;
75746;SDS011;70632;52.232;21.038;2023-11-21T14:03:22;29.67;;;15.43;;
75746;SDS011;70632;52.232;21.038;2023-11-21T14:05:58;35.80;;;15.23;;
75746;SDS011;70632;52.232;21.038;2023-11-21T14:08:25;32.30;;;15.57;;
75746;SDS011;70632;52.232;21.038;2023-11-21T14:10:54;32.50;;;15.07;;
75746;SDS011;70632;52.232;21.038;2023-11-21T14:13:24;29.95;;;14.70;;
75746;SDS011;70632;52.232;21.038;2023-11-21T14:15:53;34.33;;;15.20;;
75746;SDS011;70632;52.232;21.038;2023-11-21T14:18:28;33.10;;;15.70;;
75746;SDS011;70632;52.232;21.038;2023-11-21T14:21:06;30.80;;;15.15;;
75746;SDS011;70632;52.232;21.038;2023-11-21T14:23:33;34.70;;;16.23;;
75746;SDS011;70632;52.232;21.038;2023-11-21T14:26:01;33.17;;;18.45;;
75746;SDS011;70632;52.232;21.038;2023-11-21T14:28:27;30.75;;;17.15;;
75746;SDS011;70632;52.232;21.038;2023-11-21T14:30:53;33.17;;;16.27;;
75746;SDS011;70632;52.232;21.038;2023-11-21T14:33:19;32.80;;;16.13;;
75746;SDS011;70632;52.232;21.038;2023-11-21T14:35:45;35.75;;;14.95;;
75746;SDS011;70632;52.232;21.038;2023-11-21T14:38:14;29.52;;;14.45;;
75746;SDS011;70632;52.232;21.038;2023-11-21T14:40:40;28.45;;;13.75;;
75746;SDS011;70632;52.232;21.038;2023-11-21T14:43:06;30.17;;;13.70;;
75746;SDS011;70632;52.232;21.038;2023-11-21T14:45:32;30.88;;;14.65;;
75746;SDS011;70632;52.232;21.038;2023-11-21T14:47:59;31.15;;;14.60;;
75746;SDS011;70632;52.232;21.038;2023-11-21T14:50:32;30.80;;;15.60;;
75746;SDS011;70632;52.232;21.038;2023-11-21T14:53:11;30.60;;;14.77;;
75746;SDS011;70632;52.232;21.038;2023-11-21T14:55:38;31.27;;;14.73;;
75746;SDS011;70632;52.232;21.038;2023-11-21T14:58:17;28.80;;;13.48;;
75746;SDS011;70632;52.232;21.038;2023-11-21T15:00:54;34.08;;;15.55;;
75746;SDS011;70632;52.232;21.038;2023-11-21T15:03:24;30.58;;;14.48;;
75746;SDS011;70632;52.232;21.038;2023-11-21T15:05:57;33.13;;;16.55;;
75746;SDS011;70632;52.232;21.038;2023-11-21T15:08:24;27.40;;;13.05;;
75746;SDS011;70632;52.232;21.038;2023-11-21T15:10:57;27.15;;;14.48;;
75746;SDS011;70632;52.232;21.038;2023-11-21T15:13:28;28.30;;;13.68;;
75746;SDS011;70632;52.232;21.038;2023-11-21T15:16:03;29.40;;;14.02;;
75746;SDS011;70632;52.232;21.038;2023-11-21T15:18:33;29.13;;;15.18;;
75746;SDS011;70632;52.232;21.038;2023-11-21T15:21:01;25.25;;;13.25;;
75746;SDS011;70632;52.232;21.038;2023-11-21T15:23:29;25.38;;;12.65;;
75746;SDS011;70632;52.232;21.038;2023-11-21T15:26:03;26.33;;;13.05;;
75746;SDS011;70632;52.232;21.038;2023-11-21T15:28:47;23.88;;;12.60;;
75746;SDS011;70632;52.232;21.038;2023-11-21T15:31:13;29.73;;;14.05;;
75746;SDS011;70632;52.232;21.038;2023-11-21T15:33:43;32.10;;;14.80;;
75746;SDS011;70632;52.232;21.038;2023-11-21T15:36:09;27.35;;;13.75;;
75746;SDS011;70632;52.232;21.038;2023-11-21T15:38:36;26.17;;;12.98;;
75746;SDS011;70632;52.232;21.038;2023-11-21T15:41:03;31.40;;;13.57;;
75746;SDS011;70632;52.232;21.038;2023-11-21T15:43:29;27.67;;;13.40;;
75746;SDS011;70632;52.232;21.038;2023-11-21T15:45:58;27.38;;;13.20;;
75746;SDS011;70632;52.232;21.038;2023-11-21T15:48:33;25.77;;;11.23;;
75746;SDS011;70632;52.232;21.038;2023-11-21T15:51:07;21.85;;;11.63;;
75746;SDS011;70632;52.232;21.038;2023-11-21T15:53:37;23.67;;;11.68;;
75746;SDS011;70632;52.232;21.038;2023-11-21T15:56:24;25.77;;;12.52;;
75746;SDS011;70632;52.232;21.038;2023-11-21T15:58:52;25.90;;;12.43;;
75746;SDS011;70632;52.232;21.038;2023-11-21T16:01:19;24.98;;;11.07;;
75746;SDS011;70632;52.232;21.038;2023-11-21T16:03:48;25.67;;;12.35;;
75746;SDS011;70632;52.232;21.038;2023-11-21T16:06:16;25.30;;;11.93;;
75746;SDS011;70632;52.232;21.038;2023-11-21T16:08:42;29.13;;;13.20;;
75746;SDS011;70632;52.232;21.038;2023-11-21T16:11:10;26.88;;;11.95;;
75746;SDS011;70632;52.232;21.038;2023-11-21T16:13:47;22.50;;;11.15;;
75746;SDS011;70632;52.232;21.038;2023-11-21T16:16:33;27.55;;;13.20;;
75746;SDS011;70632;52.232;21.038;2023-11-21T16:19:21;25.70;;;11.50;;
75746;SDS011;70632;52.232;21.038;2023-11-21T16:25:15;28.55;;;11.88;;
75746;SDS011;70632;52.232;21.038;2023-11-21T16:35:07;34.30;;;14.40;;